Time;durP1;ratioP1;P1;durP2;ratioP2;P2;SDS_P1;SDS_P2;PMS_P1;PMS_P2;Temp;Humidity;BMP_temperature;BMP_pressure;BME280_temperature;BME280_humidity;BME280_pressure;Samples;Min_cycle;Max_cycle;Signal;HPM_P1;HPM_P2
2021/10/17 00:01:45;;;;;;;20.20;13.00;;;5.50;99.90;;;;;;1996685;70;21100;-78
2021/10/17 00:04:11;;;;;;;15.68;12.53;;;5.50;99.90;;;;;;2014572;70;21105;-78
2021/10/17 00:06:37;;;;;;;23.92;13.30;;;5.50;99.90;;;;;;1991486;70;21018;-78
2021/10/17 00:09:03;;;;;;;17.00;12.43;;;5.50;99.90;;;;;;2001526;70;21584;-79
2021/10/17 00:11:29;;;;;;;18.60;12.80;;;5.60;99.90;;;;;;2002908;70;21168;-78
2021/10/17 00:13:55;;;;;;;19.00;12.82;;;5.60;99.90;;;;;;2026818;70;21047;-79
2021/10/17 00:16:22;;;;;;;23.85;14.30;;;5.70;99.90;;;;;;2029133;70;21062;-79
2021/10/17 00:18:48;;;;;;;17.27;12.53;;;5.70;99.90;;;;;;2017205;70;21050;-78
2021/10/17 00:21:14;;;;;;;18.12;12.70;;;5.70;99.90;;;;;;1993313;70;21042;-78
2021/10/17 00:23:40;;;;;;;22.95;13.18;;;5.60;99.90;;;;;;2000186;70;21058;-79
2021/10/17 00:26:06;;;;;;;17.00;11.80;;;5.60;99.90;;;;;;1991054;70;21024;-78
2021/10/17 00:28:32;;;;;;;16.85;12.13;;;5.60;99.90;;;;;;1995176;70;21059;-78
2021/10/17 00:30:58;;;;;;;18.52;13.15;;;5.60;99.90;;;;;;1995380;70;21055;-79
2021/10/17 00:33:24;;;;;;;17.90;13.00;;;5.40;99.90;;;;;;2009821;70;21058;-79
2021/10/17 00:35:52;;;;;;;16.75;11.93;;;5.30;99.90;;;;;;1995340;70;21023;-79
2021/10/17 00:38:18;;;;;;;18.30;12.55;;;5.40;99.90;;;;;;1997044;70;21064;-79
2021/10/17 00:40:44;;;;;;;15.58;12.10;;;5.50;99.90;;;;;;1999482;70;21050;-79
2021/10/17 00:43:10;;;;;;;26.02;12.47;;;5.50;99.90;;;;;;1993593;70;21239;-79
2021/10/17 00:45:36;;;;;;;16.05;11.33;;;5.40;99.90;;;;;;2016367;70;21090;-79
2021/10/17 00:48:04;;;;;;;15.23;11.35;;;5.40;99.90;;;;;;1995733;70;21108;-79
2021/10/17 00:50:30;;;;;;;17.80;12.55;;;5.40;99.90;;;;;;1993295;70;21052;-79
2021/10/17 00:52:56;;;;;;;22.42;12.90;;;5.50;99.90;;;;;;1987909;70;21064;-79
2021/10/17 00:55:24;;;;;;;15.05;11.83;;;5.60;99.90;;;;;;1988315;70;21030;-79
2021/10/17 00:57:50;;;;;;;15.93;12.37;;;5.50;99.90;;;;;;2019943;70;21477;-79
2021/10/17 01:00:16;;;;;;;16.80;11.25;;;5.50;99.90;;;;;;1999510;70;21446;-79
2021/10/17 01:02:42;;;;;;;17.90;12.05;;;5.60;99.90;;;;;;2015449;70;21463;-79
2021/10/17 01:05:18;;;;;;;17.23;11.93;;;5.60;99.90;;;;;;1989200;70;21403;-79
2021/10/17 01:07:44;;;;;;;18.48;12.82;;;5.70;99.90;;;;;;2004713;70;21046;-80
2021/10/17 01:10:10;;;;;;;17.82;12.10;;;5.70;99.90;;;;;;1989679;70;21041;-79
2021/10/17 01:12:36;;;;;;;17.85;12.55;;;5.70;99.90;;;;;;1996295;71;21254;-79
2021/10/17 01:15:02;;;;;;;17.48;12.50;;;5.70;99.90;;;;;;1999340;70;21233;-79
2021/10/17 01:17:29;;;;;;;20.72;13.93;;;5.80;99.90;;;;;;1994379;70;21024;-79
2021/10/17 01:19:55;;;;;;;14.55;11.53;;;5.70;99.90;;;;;;2019362;70;21055;-80
2021/10/17 01:22:24;;;;;;;20.65;13.90;;;5.70;99.90;;;;;;2004611;70;21059;-78
2021/10/17 01:24:49;;;;;;;16.48;12.60;;;5.60;99.90;;;;;;2014889;70;21153;-79
2021/10/17 01:27:15;;;;;;;19.10;12.82;;;5.50;99.90;;;;;;2010964;70;21051;-79
2021/10/17 01:29:41;;;;;;;23.83;13.18;;;5.50;99.90;;;;;;1999567;70;21178;-79
2021/10/17 01:32:07;;;;;;;21.20;13.72;;;5.40;99.90;;;;;;1997227;70;21042;-79
2021/10/17 01:34:33;;;;;;;24.05;13.78;;;5.50;99.90;;;;;;1993455;70;21035;-79
2021/10/17 01:36:59;;;;;;;20.62;13.78;;;5.50;99.90;;;;;;2007315;70;21046;-79
2021/10/17 01:39:25;;;;;;;17.40;13.35;;;5.50;99.90;;;;;;2023409;70;21063;-79
2021/10/17 01:41:51;;;;;;;21.75;13.32;;;5.50;99.90;;;;;;2003704;70;21124;-79
2021/10/17 01:44:18;;;;;;;17.70;13.25;;;5.50;99.90;;;;;;1997242;70;21027;-79
2021/10/17 01:46:44;;;;;;;17.70;13.38;;;5.40;99.90;;;;;;1991037;70;21038;-79
2021/10/17 01:49:12;;;;;;;29.45;14.85;;;5.40;99.90;;;;;;1985538;70;21066;-79
2021/10/17 01:54:23;;;;;;;22.50;14.03;;;5.40;99.90;;;;;;2015161;70;21105;-79
2021/10/17 01:56:49;;;;;;;23.15;14.28;;;5.50;99.90;;;;;;2004149;70;21051;-79
2021/10/17 01:59:16;;;;;;;25.80;13.62;;;5.50;99.90;;;;;;2009218;70;21230;-76
2021/10/17 02:01:43;;;;;;;21.00;14.90;;;5.40;99.90;;;;;;2001377;70;21007;-77
2021/10/17 02:04:10;;;;;;;20.60;14.65;;;5.40;99.90;;;;;;2013649;70;21063;-77
2021/10/17 02:06:36;;;;;;;18.77;13.98;;;5.40;99.90;;;;;;2000500;70;21113;-77
2021/10/17 02:09:02;;;;;;;19.98;13.45;;;5.40;99.90;;;;;;1996501;70;21105;-79
2021/10/17 02:11:28;;;;;;;19.82;14.15;;;5.60;99.90;;;;;;2021869;70;21146;-79
2021/10/17 02:13:54;;;;;;;21.85;14.60;;;5.40;99.90;;;;;;1995775;71;21117;-79
2021/10/17 02:16:20;;;;;;;19.35;14.68;;;5.30;99.90;;;;;;2017102;70;21062;-79
2021/10/17 02:18:46;;;;;;;20.80;14.80;;;5.50;99.90;;;;;;2013899;70;21046;-79
2021/10/17 02:21:12;;;;;;;21.00;13.32;;;5.50;99.90;;;;;;2007370;70;21063;-80
2021/10/17 02:23:39;;;;;;;17.60;12.80;;;5.50;99.90;;;;;;2019590;70;21046;-79
2021/10/17 02:26:06;;;;;;;18.45;13.93;;;5.50;99.90;;;;;;2001870;70;21111;-79
2021/10/17 02:28:33;;;;;;;17.85;13.35;;;5.50;99.90;;;;;;2009129;70;21031;-80
2021/10/17 02:30:59;;;;;;;20.52;12.90;;;5.40;99.90;;;;;;2009498;70;21113;-79
2021/10/17 02:33:25;;;;;;;21.73;13.95;;;5.40;99.90;;;;;;2005414;70;21051;-79
2021/10/17 02:35:51;;;;;;;18.55;14.03;;;5.40;99.90;;;;;;2007231;70;21057;-79
2021/10/17 02:38:17;;;;;;;20.70;14.43;;;5.50;99.90;;;;;;2014590;70;21047;-79
2021/10/17 02:40:43;;;;;;;20.57;14.43;;;5.50;99.90;;;;;;2004447;70;21125;-79
2021/10/17 02:43:09;;;;;;;21.50;14.53;;;5.40;99.90;;;;;;2015894;70;21128;-79
2021/10/17 02:45:36;;;;;;;24.37;14.33;;;5.40;99.90;;;;;;2006604;70;21120;-80
2021/10/17 02:48:02;;;;;;;17.95;13.30;;;5.50;99.90;;;;;;2023347;70;21085;-80
2021/10/17 02:50:28;;;;;;;16.97;13.75;;;5.60;99.90;;;;;;2013464;70;21140;-78
2021/10/17 02:52:54;;;;;;;19.67;14.00;;;5.50;99.90;;;;;;2017155;70;21043;-80
2021/10/17 02:55:20;;;;;;;19.80;14.30;;;5.50;99.90;;;;;;1998866;70;21135;-80
2021/10/17 02:57:46;;;;;;;16.73;13.00;;;5.50;99.90;;;;;;1992194;70;21046;-80
2021/10/17 03:00:12;;;;;;;18.55;13.40;;;5.50;99.90;;;;;;2023051;70;21062;-79
2021/10/17 03:02:38;;;;;;;20.37;13.88;;;5.50;99.90;;;;;;2024472;70;21189;-80
2021/10/17 03:05:05;;;;;;;17.35;13.68;;;5.60;99.90;;;;;;2012699;70;21023;-80
2021/10/17 03:07:31;;;;;;;14.40;12.23;;;5.50;99.90;;;;;;1992057;70;21115;-79
2021/10/17 03:09:57;;;;;;;17.80;12.23;;;5.60;99.90;;;;;;2014738;70;21063;-79
2021/10/17 03:12:23;;;;;;;18.67;12.65;;;5.70;99.90;;;;;;2024091;70;21047;-79
2021/10/17 03:14:49;;;;;;;19.07;12.68;;;5.70;99.90;;;;;;2015286;70;21062;-80
2021/10/17 03:17:15;;;;;;;18.02;12.43;;;5.70;99.90;;;;;;2006754;70;21016;-80
2021/10/17 03:19:41;;;;;;;18.02;13.28;;;5.80;99.90;;;;;;2016203;70;21095;-80
2021/10/17 03:22:07;;;;;;;16.37;12.07;;;5.90;99.90;;;;;;2020260;70;21117;-79
2021/10/17 03:24:34;;;;;;;19.80;13.53;;;5.90;99.90;;;;;;2024654;70;21168;-80
2021/10/17 03:27:00;;;;;;;19.50;12.13;;;6.00;99.90;;;;;;2012784;70;21016;-79
2021/10/17 03:29:26;;;;;;;18.17;12.55;;;5.90;99.90;;;;;;2014052;70;21120;-79
2021/10/17 03:31:52;;;;;;;17.52;12.43;;;5.90;99.90;;;;;;1987080;70;21161;-80
2021/10/17 03:34:18;;;;;;;15.65;11.33;;;5.90;99.90;;;;;;1996310;70;21051;-79
2021/10/17 03:36:44;;;;;;;16.67;12.73;;;5.80;99.90;;;;;;2007361;70;21028;-80
2021/10/17 03:39:10;;;;;;;18.48;11.53;;;5.80;99.90;;;;;;2003309;70;21047;-80
2021/10/17 03:41:36;;;;;;;14.93;11.57;;;5.90;99.90;;;;;;1993011;70;21176;-79
2021/10/17 03:44:04;;;;;;;20.32;11.43;;;5.90;99.90;;;;;;1991479;70;21053;-80
2021/10/17 03:46:30;;;;;;;16.93;11.43;;;5.80;99.90;;;;;;2028334;70;21113;-80
2021/10/17 03:48:56;;;;;;;17.52;11.63;;;5.80;99.90;;;;;;2009783;70;21043;-79
2021/10/17 03:51:22;;;;;;;18.60;12.60;;;5.70;99.90;;;;;;2019918;70;21038;-79
2021/10/17 03:53:48;;;;;;;18.15;12.45;;;5.60;99.90;;;;;;2011522;70;21238;-80
2021/10/17 03:56:14;;;;;;;15.08;11.57;;;5.60;99.90;;;;;;2006875;70;21063;-80
2021/10/17 03:58:40;;;;;;;13.72;11.48;;;5.70;99.90;;;;;;2007504;70;21149;-80
2021/10/17 04:01:07;;;;;;;16.55;11.60;;;5.80;99.90;;;;;;1986841;70;21238;-79
2021/10/17 04:03:33;;;;;;;35.52;12.20;;;5.80;99.90;;;;;;2026846;70;21160;-80
2021/10/17 04:05:59;;;;;;;13.53;10.72;;;5.80;99.90;;;;;;1997259;70;21136;-80
2021/10/17 04:08:25;;;;;;;18.67;11.25;;;5.70;99.90;;;;;;1995224;70;21159;-79
2021/10/17 04:10:51;;;;;;;17.32;11.78;;;5.80;99.90;;;;;;2000426;70;21046;-79
2021/10/17 04:13:17;;;;;;;17.40;11.55;;;5.90;99.90;;;;;;1985273;70;21072;-80
2021/10/17 04:15:43;;;;;;;14.50;10.82;;;5.90;99.90;;;;;;1990627;70;21588;-80
2021/10/17 04:18:09;;;;;;;13.45;11.28;;;6.00;99.90;;;;;;2007075;70;21453;-80
2021/10/17 04:20:35;;;;;;;11.57;10.23;;;6.00;99.90;;;;;;1993247;70;21462;-80
2021/10/17 04:23:03;;;;;;;17.02;10.90;;;6.10;99.90;;;;;;1988762;70;21528;-80
2021/10/17 04:25:29;;;;;;;13.80;10.55;;;6.00;99.90;;;;;;1994155;70;21066;-80
2021/10/17 04:27:55;;;;;;;17.23;11.40;;;6.00;99.90;;;;;;2014916;70;21056;-80
2021/10/17 04:30:21;;;;;;;17.15;11.43;;;6.10;99.90;;;;;;1997414;70;21058;-80
2021/10/17 04:32:48;;;;;;;15.23;11.12;;;6.10;99.90;;;;;;2016797;70;21168;-80
2021/10/17 04:35:14;;;;;;;16.85;11.38;;;6.10;99.90;;;;;;1994560;70;21070;-80
2021/10/17 04:37:40;;;;;;;18.07;10.68;;;6.10;99.90;;;;;;2004243;70;21435;-80
2021/10/17 04:40:06;;;;;;;15.68;10.85;;;6.10;99.90;;;;;;2008018;70;21470;-79
2021/10/17 04:42:32;;;;;;;20.00;11.57;;;6.10;99.90;;;;;;2000538;70;21489;-80
2021/10/17 04:44:58;;;;;;;14.00;11.30;;;6.10;99.90;;;;;;1987048;71;21531;-80
2021/10/17 04:47:24;;;;;;;15.58;11.48;;;6.10;99.90;;;;;;1989825;70;21478;-80
2021/10/17 04:49:50;;;;;;;17.25;11.25;;;6.10;99.90;;;;;;1991668;70;21060;-79
2021/10/17 04:52:16;;;;;;;14.28;11.08;;;6.10;99.90;;;;;;2015806;70;21049;-79
2021/10/17 04:54:43;;;;;;;18.73;10.95;;;6.10;99.90;;;;;;1995284;70;21483;-80
2021/10/17 04:57:10;;;;;;;15.10;10.40;;;6.10;99.90;;;;;;1992230;70;21275;-80
2021/10/17 04:59:36;;;;;;;12.65;9.48;;;6.10;99.90;;;;;;1988492;70;21015;-80
2021/10/17 05:02:02;;;;;;;14.10;10.43;;;6.20;99.90;;;;;;1996516;70;21149;-80
2021/10/17 05:04:29;;;;;;;19.37;11.03;;;6.10;99.90;;;;;;2008830;70;21424;-79
2021/10/17 05:06:55;;;;;;;12.15;10.48;;;6.10;99.90;;;;;;2021945;70;21458;-79
2021/10/17 05:09:21;;;;;;;13.18;9.70;;;6.10;99.90;;;;;;2012066;70;21483;-80
2021/10/17 05:11:47;;;;;;;13.43;10.38;;;6.20;99.90;;;;;;1996472;70;21623;-80
2021/10/17 05:14:13;;;;;;;14.00;10.68;;;6.10;99.90;;;;;;2004105;70;21031;-80
2021/10/17 05:16:39;;;;;;;17.85;11.03;;;6.10;99.90;;;;;;2018442;70;21054;-79
2021/10/17 05:19:05;;;;;;;18.02;11.48;;;6.20;99.90;;;;;;1997716;70;21161;-80
2021/10/17 05:21:31;;;;;;;17.82;11.93;;;6.10;99.90;;;;;;1992350;70;21132;-80
2021/10/17 05:23:58;;;;;;;15.93;11.20;;;6.10;99.90;;;;;;2018180;70;21117;-80
2021/10/17 05:26:24;;;;;;;13.48;11.18;;;6.10;99.90;;;;;;2001144;70;22463;-80
2021/10/17 05:28:50;;;;;;;16.10;11.40;;;6.10;99.90;;;;;;2000476;70;21109;-79
2021/10/17 05:31:16;;;;;;;17.17;11.22;;;6.10;99.90;;;;;;1994647;70;21051;-81
2021/10/17 05:33:44;;;;;;;25.23;15.10;;;6.10;99.90;;;;;;2018172;70;21226;-81
2021/10/17 05:36:10;;;;;;;20.95;14.07;;;6.10;99.90;;;;;;2003008;70;21141;-81
2021/10/17 05:38:36;;;;;;;32.93;16.62;;;6.20;99.90;;;;;;2006671;70;21104;-80
2021/10/17 05:41:02;;;;;;;22.60;13.45;;;6.10;99.90;;;;;;2008069;70;21129;-80
2021/10/17 05:43:28;;;;;;;19.55;12.68;;;6.10;99.90;;;;;;2021757;70;21027;-81
2021/10/17 05:45:54;;;;;;;15.78;11.45;;;6.10;99.90;;;;;;1990682;70;21098;-81
2021/10/17 05:48:20;;;;;;;16.12;11.33;;;6.10;99.90;;;;;;2001278;70;21062;-80
2021/10/17 05:50:47;;;;;;;15.18;11.25;;;6.10;99.90;;;;;;2005023;70;21185;-80
2021/10/17 05:53:13;;;;;;;13.80;10.28;;;6.00;99.90;;;;;;2014895;70;21098;-79
2021/10/17 05:55:40;;;;;;;15.40;10.70;;;5.90;99.90;;;;;;1996507;70;21054;-79
2021/10/17 05:58:07;;;;;;;15.78;11.28;;;5.90;99.90;;;;;;1990448;70;21050;-80
2021/10/17 06:00:33;;;;;;;13.20;10.98;;;5.90;99.90;;;;;;2020044;70;21059;-80
2021/10/17 06:03:00;;;;;;;17.95;11.63;;;5.80;99.90;;;;;;2001784;70;21017;-79
2021/10/17 06:05:26;;;;;;;14.50;10.72;;;5.80;99.90;;;;;;2018257;70;21473;-80
2021/10/17 06:07:53;;;;;;;14.13;11.53;;;5.80;99.90;;;;;;2011129;70;21543;-79
2021/10/17 06:10:19;;;;;;;16.90;12.35;;;5.80;99.90;;;;;;1992065;70;21051;-79
2021/10/17 06:12:45;;;;;;;13.58;11.35;;;5.80;99.90;;;;;;1999866;70;21132;-78
2021/10/17 06:15:11;;;;;;;19.02;11.83;;;5.80;99.90;;;;;;1981940;70;21128;-79
2021/10/17 06:17:37;;;;;;;18.50;12.05;;;5.80;99.90;;;;;;1987210;70;21078;-79
2021/10/17 06:20:04;;;;;;;19.12;12.90;;;5.80;99.90;;;;;;1995351;70;21459;-80
2021/10/17 06:22:30;;;;;;;14.55;12.40;;;5.90;99.90;;;;;;1990544;70;21478;-76
2021/10/17 06:24:56;;;;;;;14.65;12.23;;;6.00;99.90;;;;;;2001725;70;21051;-81
2021/10/17 06:27:22;;;;;;;19.32;11.90;;;6.00;99.90;;;;;;1985513;70;21156;-80
2021/10/17 06:29:48;;;;;;;18.98;12.47;;;6.10;99.90;;;;;;2008407;70;21055;-79
2021/10/17 06:32:14;;;;;;;18.10;11.97;;;6.20;99.90;;;;;;1987211;70;21042;-79
2021/10/17 06:34:41;;;;;;;16.57;12.07;;;6.30;99.90;;;;;;1992326;70;21270;-79
2021/10/17 06:37:07;;;;;;;21.17;12.45;;;6.40;99.90;;;;;;2011521;70;21059;-80
2021/10/17 06:39:33;;;;;;;17.42;12.58;;;6.40;99.90;;;;;;2024163;70;21062;-79
2021/10/17 06:41:59;;;;;;;16.42;12.15;;;6.50;99.90;;;;;;1994760;70;21456;-76
2021/10/17 06:44:25;;;;;;;18.77;14.05;;;6.60;99.90;;;;;;1990498;70;21039;-79
2021/10/17 06:46:52;;;;;;;16.60;13.10;;;6.50;99.90;;;;;;2000574;70;21046;-80
2021/10/17 06:49:18;;;;;;;19.35;12.73;;;6.40;99.90;;;;;;2001173;70;21132;-79
2021/10/17 06:51:44;;;;;;;17.82;13.20;;;6.50;99.90;;;;;;1991950;70;21015;-80
2021/10/17 06:54:10;;;;;;;16.02;12.90;;;6.50;99.90;;;;;;1993861;70;21057;-82
2021/10/17 06:56:36;;;;;;;20.75;14.00;;;6.70;99.90;;;;;;2003657;70;21124;-81
2021/10/17 06:59:03;;;;;;;15.05;11.85;;;6.70;99.90;;;;;;2012064;70;21051;-81
2021/10/17 07:01:29;;;;;;;21.80;13.35;;;6.70;99.90;;;;;;1994536;70;21479;-82
2021/10/17 07:03:55;;;;;;;15.53;12.05;;;6.80;99.90;;;;;;2026683;70;21029;-81
2021/10/17 07:06:21;;;;;;;19.50;13.05;;;6.90;99.90;;;;;;2018174;70;21058;-81
2021/10/17 07:08:47;;;;;;;18.17;12.35;;;7.10;99.90;;;;;;2006043;71;21089;-83
2021/10/17 07:11:13;;;;;;;17.55;12.40;;;7.10;99.90;;;;;;2017230;70;21054;-81
2021/10/17 07:13:39;;;;;;;159.45;17.70;;;7.20;99.90;;;;;;2021170;70;21024;-76
2021/10/17 07:16:05;;;;;;;19.10;12.65;;;7.40;99.90;;;;;;1996204;70;21071;-76
2021/10/17 07:18:32;;;;;;;15.55;11.97;;;7.50;99.90;;;;;;1994480;71;21120;-77
2021/10/17 07:20:58;;;;;;;17.00;11.97;;;7.50;99.90;;;;;;2007940;70;21082;-80
2021/10/17 07:23:24;;;;;;;19.90;12.28;;;7.50;99.90;;;;;;2008943;70;21092;-78
2021/10/17 07:25:50;;;;;;;17.20;11.68;;;7.80;99.90;;;;;;1988304;70;21121;-78
2021/10/17 07:28:16;;;;;;;16.27;12.07;;;7.90;99.90;;;;;;2002782;70;21169;-79
2021/10/17 07:30:42;;;;;;;23.07;11.00;;;8.00;99.90;;;;;;1987882;70;21042;-80
2021/10/17 07:33:08;;;;;;;18.45;11.53;;;8.20;99.90;;;;;;1997059;70;22670;-76
2021/10/17 07:35:34;;;;;;;12.15;10.55;;;8.20;99.90;;;;;;1982895;70;21257;-77
2021/10/17 07:38:01;;;;;;;13.15;11.30;;;8.20;99.90;;;;;;1992979;70;21050;-78
2021/10/17 07:40:27;;;;;;;13.70;11.28;;;8.20;99.90;;;;;;1995858;70;21065;-77
2021/10/17 07:42:53;;;;;;;18.20;11.95;;;8.10;99.90;;;;;;1986191;70;21135;-77
2021/10/17 07:45:19;;;;;;;20.65;12.60;;;8.00;99.90;;;;;;1992433;70;21114;-77
2021/10/17 07:47:45;;;;;;;20.02;12.33;;;8.00;99.90;;;;;;1987394;70;21054;-77
2021/10/17 07:50:11;;;;;;;16.40;12.90;;;8.00;99.90;;;;;;1996099;70;21067;-78
2021/10/17 07:52:37;;;;;;;17.70;11.18;;;8.00;99.90;;;;;;2010203;70;21121;-77
2021/10/17 07:55:04;;;;;;;15.08;12.03;;;8.00;99.90;;;;;;2013943;70;21019;-76
2021/10/17 07:57:30;;;;;;;18.82;11.73;;;8.10;99.90;;;;;;2022781;70;21099;-77
2021/10/17 07:59:56;;;;;;;17.35;11.90;;;8.20;99.90;;;;;;2017321;70;21498;-77
2021/10/17 08:02:24;;;;;;;17.30;11.55;;;8.30;99.90;;;;;;2006550;70;21180;-77
2021/10/17 08:04:50;;;;;;;15.80;10.58;;;8.40;99.90;;;;;;1994518;71;21078;-77
2021/10/17 08:07:16;;;;;;;15.45;10.18;;;8.70;99.90;;;;;;1993335;70;21038;-76
2021/10/17 08:09:43;;;;;;;13.62;10.13;;;8.80;99.90;;;;;;1984557;70;21119;-79
2021/10/17 08:12:09;;;;;;;18.70;10.35;;;8.90;99.90;;;;;;1984797;70;21038;-78
2021/10/17 08:14:35;;;;;;;15.30;10.13;;;9.20;99.90;;;;;;2000499;70;21023;-78
2021/10/17 08:17:02;;;;;;;13.58;10.20;;;9.10;99.90;;;;;;2000411;70;21015;-78
2021/10/17 08:19:28;;;;;;;14.00;10.05;;;9.30;99.90;;;;;;1989980;70;21044;-77
2021/10/17 08:21:54;;;;;;;12.35;9.90;;;9.20;99.90;;;;;;2012528;70;21457;-76
2021/10/17 08:24:20;;;;;;;13.60;9.73;;;9.20;99.90;;;;;;1989252;70;21107;-79
2021/10/17 08:26:46;;;;;;;17.60;10.25;;;9.30;99.90;;;;;;2012633;70;21038;-78
2021/10/17 08:29:12;;;;;;;22.90;10.98;;;9.60;99.90;;;;;;1992624;70;21027;-79
2021/10/17 08:31:38;;;;;;;13.70;10.23;;;9.70;99.90;;;;;;2021938;70;21124;-79
2021/10/17 08:34:05;;;;;;;13.25;9.98;;;9.90;99.90;;;;;;2002136;70;21054;-78
2021/10/17 08:36:31;;;;;;;14.55;10.32;;;10.00;99.90;;;;;;1993623;70;21050;-78
2021/10/17 08:38:57;;;;;;;14.30;10.55;;;10.10;99.90;;;;;;1984993;70;21019;-78
2021/10/17 08:41:23;;;;;;;14.90;11.18;;;10.20;99.90;;;;;;2012833;70;21109;-79
2021/10/17 08:43:49;;;;;;;12.30;9.90;;;10.20;99.90;;;;;;1996430;70;22551;-78
2021/10/17 08:46:15;;;;;;;15.25;11.35;;;10.00;99.90;;;;;;1995568;70;21270;-79
2021/10/17 08:48:41;;;;;;;13.70;11.08;;;10.00;99.90;;;;;;2005152;70;21200;-79
2021/10/17 08:51:08;;;;;;;15.80;11.43;;;10.30;99.90;;;;;;2003005;70;21205;-79
2021/10/17 08:53:34;;;;;;;13.15;11.35;;;10.50;99.90;;;;;;1991042;70;21189;-80
2021/10/17 08:56:00;;;;;;;14.73;11.30;;;10.40;99.90;;;;;;2028838;70;21041;-80
2021/10/17 08:58:26;;;;;;;14.80;12.05;;;10.40;99.90;;;;;;2007444;70;21071;-78
2021/10/17 09:00:53;;;;;;;14.53;11.68;;;10.60;99.90;;;;;;2009727;70;21059;-79
2021/10/17 09:03:19;;;;;;;19.90;13.30;;;10.70;99.90;;;;;;1995671;70;21085;-79
2021/10/17 09:05:45;;;;;;;16.97;12.28;;;10.60;99.90;;;;;;1995385;70;21120;-78
2021/10/17 09:08:11;;;;;;;15.72;11.48;;;10.80;99.90;;;;;;2012203;70;21047;-78
2021/10/17 09:10:38;;;;;;;16.50;12.10;;;11.00;99.90;;;;;;2028443;70;21054;-78
2021/10/17 09:13:04;;;;;;;16.87;12.82;;;11.20;99.90;;;;;;2027345;70;21047;-78
2021/10/17 09:15:30;;;;;;;16.20;12.78;;;10.90;99.90;;;;;;2018195;70;21051;-78
2021/10/17 09:17:56;;;;;;;14.63;11.68;;;11.20;99.90;;;;;;1995749;70;21106;-78
2021/10/17 09:20:22;;;;;;;17.73;11.85;;;11.50;99.90;;;;;;2000976;70;21233;-78
2021/10/17 09:22:48;;;;;;;16.17;11.83;;;11.70;99.90;;;;;;1994737;70;21120;-79
2021/10/17 09:25:14;;;;;;;16.87;12.00;;;11.90;99.90;;;;;;1991874;70;21050;-79
2021/10/17 09:27:40;;;;;;;12.80;11.12;;;12.00;99.90;;;;;;1994813;70;21060;-79
2021/10/17 09:30:07;;;;;;;16.05;11.68;;;11.80;99.90;;;;;;2026833;70;21112;-80
2021/10/17 09:32:33;;;;;;;14.65;12.00;;;11.90;99.90;;;;;;2010210;70;21024;-80
2021/10/17 09:34:59;;;;;;;13.78;11.70;;;12.10;99.90;;;;;;1987046;70;21427;-79
2021/10/17 09:37:25;;;;;;;16.62;12.37;;;12.10;99.90;;;;;;1990948;70;21447;-79
2021/10/17 09:39:52;;;;;;;14.33;11.38;;;12.20;99.90;;;;;;1997782;70;21471;-79
2021/10/17 09:42:19;;;;;;;15.08;10.98;;;12.60;99.90;;;;;;2008765;70;21054;-79
2021/10/17 09:44:45;;;;;;;16.23;11.45;;;12.70;99.90;;;;;;1990022;70;21439;-79
2021/10/17 09:47:11;;;;;;;15.70;12.03;;;12.90;99.90;;;;;;1994299;70;21462;-79
2021/10/17 09:49:38;;;;;;;16.42;11.22;;;12.90;99.90;;;;;;1985414;70;21160;-79
2021/10/17 09:52:04;;;;;;;15.58;11.33;;;12.80;99.90;;;;;;2005458;70;21011;-79
2021/10/17 09:54:30;;;;;;;13.98;11.03;;;13.00;99.90;;;;;;1996394;70;21123;-79
2021/10/17 09:56:56;;;;;;;18.85;11.50;;;13.20;99.90;;;;;;1992360;70;21177;-79
2021/10/17 09:59:22;;;;;;;18.12;11.60;;;13.20;99.90;;;;;;2004198;70;21031;-79
2021/10/17 10:01:48;;;;;;;15.00;10.50;;;13.50;99.90;;;;;;2007276;70;21202;-78
2021/10/17 10:04:14;;;;;;;19.92;12.45;;;13.40;99.90;;;;;;2015902;70;21051;-80
2021/10/17 10:06:40;;;;;;;15.35;12.30;;;13.20;99.90;;;;;;1984884;70;21019;-81
2021/10/17 10:09:07;;;;;;;15.23;11.50;;;13.00;99.90;;;;;;2009668;70;21046;-82
2021/10/17 10:11:33;;;;;;;17.12;12.53;;;13.00;99.90;;;;;;1999948;70;21539;-82
2021/10/17 10:13:59;;;;;;;17.07;12.80;;;13.30;99.90;;;;;;1970297;71;21481;-81
2021/10/17 10:16:25;;;;;;;17.45;13.35;;;13.50;99.90;;;;;;1995748;70;21446;-82
2021/10/17 10:18:51;;;;;;;18.62;12.58;;;13.80;99.90;;;;;;1994037;70;21580;-82
2021/10/17 10:21:17;;;;;;;17.23;13.45;;;13.60;99.90;;;;;;1998805;70;21523;-82
2021/10/17 10:23:43;;;;;;;16.20;13.45;;;13.60;99.90;;;;;;1983489;70;21462;-82
2021/10/17 10:26:10;;;;;;;17.05;13.05;;;13.60;99.90;;;;;;2020874;70;21427;-82
2021/10/17 10:28:36;;;;;;;15.80;12.40;;;14.10;99.90;;;;;;2020117;70;21475;-83
2021/10/17 10:31:02;;;;;;;15.63;11.70;;;14.30;99.90;;;;;;1996322;70;21112;-80
2021/10/17 10:33:32;;;;;;;17.17;12.82;;;14.60;99.90;;;;;;1996196;70;21235;-79
2021/10/17 10:35:56;;;;;;;23.18;13.80;;;14.40;99.90;;;;;;2002086;70;21078;-83
2021/10/17 10:38:22;;;;;;;19.75;13.75;;;14.40;99.90;;;;;;1984304;70;21104;-83
2021/10/17 10:40:48;;;;;;;18.57;12.70;;;14.30;99.90;;;;;;1993516;70;21111;-81
2021/10/17 10:43:17;;;;;;;15.20;13.03;;;14.30;99.90;;;;;;1990543;70;21024;-80
2021/10/17 10:45:42;;;;;;;16.55;13.45;;;14.00;99.90;;;;;;2011982;70;21087;-81
2021/10/17 10:48:08;;;;;;;17.77;13.40;;;14.00;99.90;;;;;;2000572;70;21058;-81
2021/10/17 10:50:34;;;;;;;16.10;14.20;;;13.90;99.90;;;;;;2014312;70;21111;-84
2021/10/17 10:53:00;;;;;;;22.70;15.00;;;14.10;99.90;;;;;;2004424;70;21017;-81
2021/10/17 10:55:26;;;;;;;19.73;13.53;;;14.30;99.90;;;;;;2006103;70;21102;-83
2021/10/17 10:57:53;;;;;;;17.95;13.15;;;14.50;99.90;;;;;;2002239;70;21480;-82
2021/10/17 11:00:19;;;;;;;18.77;12.93;;;14.00;99.90;;;;;;1980806;70;21414;-82
2021/10/17 11:02:46;;;;;;;18.70;13.28;;;14.20;99.90;;;;;;2019111;70;21189;-81
2021/10/17 11:05:13;;;;;;;18.87;12.73;;;14.20;99.90;;;;;;1991260;70;21207;-83
2021/10/17 11:07:40;;;;;;;18.55;13.05;;;14.50;99.90;;;;;;1993311;70;21051;-83
2021/10/17 11:10:06;;;;;;;22.20;13.05;;;14.90;99.90;;;;;;2013840;70;21015;-83
2021/10/17 11:12:32;;;;;;;19.25;13.05;;;15.00;99.90;;;;;;1987718;70;21054;-83
2021/10/17 11:14:58;;;;;;;17.10;13.20;;;15.10;99.90;;;;;;2000209;70;21197;-82
2021/10/17 11:17:24;;;;;;;18.25;13.40;;;14.90;99.90;;;;;;1991306;70;21022;-83
2021/10/17 11:19:51;;;;;;;19.20;12.60;;;14.20;99.90;;;;;;1992896;70;21038;-83
2021/10/17 11:22:17;;;;;;;18.52;12.07;;;14.50;99.90;;;;;;1993553;70;21537;-82
2021/10/17 11:24:43;;;;;;;12.73;11.30;;;15.30;99.90;;;;;;1987413;70;21474;-82
2021/10/17 11:27:10;;;;;;;15.20;11.60;;;15.60;99.90;;;;;;1982706;70;21574;-81
2021/10/17 11:29:36;;;;;;;13.83;10.95;;;15.70;99.90;;;;;;1986203;70;21238;-82
2021/10/17 11:32:02;;;;;;;13.22;10.68;;;16.10;99.90;;;;;;1998927;70;21123;-79
2021/10/17 11:34:28;;;;;;;17.80;10.48;;;16.20;99.90;;;;;;2002195;70;21062;-81
2021/10/17 11:36:54;;;;;;;17.60;11.05;;;16.40;99.90;;;;;;1998211;70;21144;-81
2021/10/17 11:39:20;;;;;;;14.07;11.15;;;16.10;99.90;;;;;;2016745;70;21048;-82
2021/10/17 11:41:46;;;;;;;19.17;11.55;;;15.60;99.90;;;;;;2021508;70;21109;-83
2021/10/17 11:44:13;;;;;;;16.93;11.55;;;15.30;99.90;;;;;;2032425;70;21120;-81
2021/10/17 11:46:39;;;;;;;14.23;11.60;;;14.90;99.90;;;;;;2013655;70;21188;-80
2021/10/17 11:49:11;;;;;;;16.65;10.95;;;15.60;99.90;;;;;;1995869;70;21139;-83
2021/10/17 11:51:33;;;;;;;15.48;10.63;;;15.40;99.90;;;;;;2026059;70;21092;-83
2021/10/17 11:54:00;;;;;;;13.55;10.78;;;15.50;99.90;;;;;;1996059;70;21115;-82
2021/10/17 11:56:26;;;;;;;13.60;10.78;;;15.80;99.90;;;;;;1991177;70;21140;-83
2021/10/17 11:58:52;;;;;;;14.18;10.18;;;16.30;99.90;;;;;;1994200;70;21120;-82
2021/10/17 12:01:18;;;;;;;17.05;11.28;;;16.40;99.90;;;;;;2026807;70;21051;-80
2021/10/17 12:03:44;;;;;;;18.42;11.63;;;16.00;99.90;;;;;;2019206;70;21054;-80
2021/10/17 12:06:10;;;;;;;16.48;10.95;;;16.40;99.90;;;;;;2021659;70;21066;-80
2021/10/17 12:08:36;;;;;;;17.90;10.30;;;16.90;99.90;;;;;;2011160;70;21043;-78
2021/10/17 12:11:03;;;;;;;15.30;10.60;;;17.20;99.90;;;;;;1988166;70;21141;-79
2021/10/17 12:13:29;;;;;;;12.37;9.68;;;17.10;99.90;;;;;;2025040;70;21006;-76
2021/10/17 12:15:55;;;;;;;16.07;10.90;;;17.00;99.90;;;;;;1995057;70;21058;-76
2021/10/17 12:18:21;;;;;;;12.43;10.85;;;17.10;99.90;;;;;;1992375;70;21050;-77
2021/10/17 12:20:47;;;;;;;16.85;10.55;;;17.00;99.90;;;;;;1991353;70;21092;-74
2021/10/17 12:23:13;;;;;;;20.08;11.63;;;16.40;99.90;;;;;;1999695;70;21136;-74
2021/10/17 12:25:39;;;;;;;14.35;10.25;;;16.70;99.90;;;;;;1998665;70;21042;-74
2021/10/17 12:28:05;;;;;;;10.60;9.50;;;17.30;99.90;;;;;;2002530;70;21073;-78
2021/10/17 12:30:37;;;;;;;11.43;9.58;;;17.50;99.90;;;;;;2024029;70;21125;-78